»·PEaware :: SWA1197 KSAN-KLAS

SWA1197 :: KSAN-KLAS

FLIGHT INFORMATION

Flight Status: Arrived
Operator:
Southwest Airlines
More flights by this operator :: More flights under this callsign
Pilot: Ben F. (2808)
Aircraft: BOEING 737-300
(B733)
More flights by this aircraft type
Origin: KSAN San Diego Intl-Lindbergh
United States
Destination: KLAS McCarran Intl
United States
More flights between these airports :: More routes between these airports
Route: PADRZ2 CHKNN SEBBY YELAH MISEN KEPEC6
File this flight plan on PilotEdge
Remarks:
Altitude:
(Current/Filed)
29,000ft
Speed:
(Current/Filed)
452kts
Departed: 30-Oct-18 08:15 AM
Arrived: 30-Oct-18 09:03 AM
Distance/Time
Traveled:
225nm/0:48
Distance/Time
To Go:
Arrived

Flight Plot

Page will automatically refresh every two minutes.

Flight plan parsing failed; only flown route is shown


Map Options




Map Legend


Flown Route
Filed Route
Departure Airport
Arrival Airport
Navaid (VOR, NDB)
Fix

Horizontal Profiles

Position Reports

Time Latitude Longitude Heading Altitude Ground
Speed
30-Oct-18 08:05 32.732571 -117.195499 311 24ft 0kts
30-Oct-18 08:06 32.732571 -117.195499 311 24ft 0kts
30-Oct-18 08:07 32.732571 -117.195499 311 24ft 0kts
30-Oct-18 08:08 32.732571 -117.195499 311 24ft 0kts
30-Oct-18 08:09 32.732424 -117.195299 311 24ft 2kts
30-Oct-18 08:10 32.732009 -117.194927 13 24ft 0kts
30-Oct-18 08:11 32.731937 -117.194956 16 24ft 0kts
30-Oct-18 08:12 32.732071 -117.194909 16 24ft 2kts
30-Oct-18 08:13 32.733365 -117.193130 105 24ft 18kts
30-Oct-18 08:14 32.731496 -117.185441 106 24ft 25kts
30-Oct-18 08:15 32.729611 -117.177691 103 24ft 15kts
30-Oct-18 08:16 32.729679 -117.176134 68 24ft 8kts
30-Oct-18 08:17 32.733661 -117.190091 286 25ft 152kts
30-Oct-18 08:18 32.756003 -117.242414 303 2132ft 207kts
30-Oct-18 08:19 32.794300 -117.309572 302 4330ft 270kts
30-Oct-18 08:20 32.839977 -117.381057 304 7671ft 276kts
30-Oct-18 08:21 32.886446 -117.453102 309 10629ft 285kts
30-Oct-18 08:22 32.937784 -117.532855 307 12701ft 322kts
30-Oct-18 08:23 33.004892 -117.599493 320 15053ft 338kts
30-Oct-18 08:24 33.078377 -117.670034 319 17393ft 349kts
30-Oct-18 08:25 33.153155 -117.742480 319 19646ft 358kts
30-Oct-18 08:26 33.231319 -117.816031 332 21663ft 370kts
30-Oct-18 08:27 33.336272 -117.817476 357 23430ft 390kts
30-Oct-18 08:28 33.445158 -117.812674 358 24005ft 395kts
30-Oct-18 08:29 33.554705 -117.806749 357 25309ft 401kts
30-Oct-18 08:30 33.667359 -117.800539 357 26815ft 411kts
30-Oct-18 08:31 33.781946 -117.794171 357 28259ft 418kts
30-Oct-18 08:32 33.896842 -117.787749 357 29026ft 410kts
30-Oct-18 08:33 34.009211 -117.781554 357 28973ft 416kts
30-Oct-18 08:34 34.119738 -117.750372 38 28988ft 451kts
30-Oct-18 08:35 34.193676 -117.625748 45 29024ft 458kts
30-Oct-18 08:36 34.274359 -117.507180 44 29029ft 457kts
30-Oct-18 08:37 34.354957 -117.388735 44 29083ft 458kts
30-Oct-18 08:38 34.434825 -117.270711 45 29131ft 461kts
30-Oct-18 08:39 34.515895 -117.150730 44 29128ft 461kts
30-Oct-18 08:40 34.596969 -117.030391 45 29130ft 465kts
30-Oct-18 08:41 34.679034 -116.908134 46 29111ft 470kts
30-Oct-18 08:42 34.761585 -116.784720 46 29074ft 470kts
30-Oct-18 08:43 34.843857 -116.661308 46 29024ft 471kts
30-Oct-18 08:44 34.940961 -116.560505 32 27080ft 454kts
30-Oct-18 08:45 35.038545 -116.466065 32 25098ft 444kts
30-Oct-18 08:46 35.128369 -116.372281 40 23459ft 437kts
30-Oct-18 08:47 35.209157 -116.270264 40 21782ft 426kts
30-Oct-18 08:48 35.290595 -116.168011 41 20082ft 414kts
30-Oct-18 08:49 35.369462 -116.068734 41 18388ft 402kts
30-Oct-18 08:50 35.446215 -115.971824 41 16704ft 387kts
30-Oct-18 08:51 35.518619 -115.880168 42 15152ft 371kts
30-Oct-18 08:52 35.589266 -115.790480 42 13664ft 363kts
30-Oct-18 08:53 35.657172 -115.701638 54 13028ft 356kts
30-Oct-18 08:54 35.673319 -115.589772 81 11868ft 319kts
30-Oct-18 08:55 35.680693 -115.486788 74 10247ft 288kts
30-Oct-18 08:56 35.710427 -115.401980 54 8635ft 260kts
30-Oct-18 08:57 35.769419 -115.360691 21 7371ft 245kts
30-Oct-18 08:58 35.824828 -115.321059 30 7021ft 242kts
30-Oct-18 08:59 35.876847 -115.283125 23 7050ft 185kts
30-Oct-18 09:00 35.921892 -115.257767 21 6000ft 173kts
30-Oct-18 09:01 35.964934 -115.233431 22 4932ft 169kts
30-Oct-18 09:02 36.005359 -115.210366 23 3946ft 157kts
30-Oct-18 09:03 36.041083 -115.189777 22 3009ft 142kts
30-Oct-18 09:04 36.075234 -115.170357 20 2228ft 134kts
30-Oct-18 09:05 36.093532 -115.159180 109 2148ft 16kts
30-Oct-18 09:06 36.092169 -115.155622 119 2148ft 0kts
30-Oct-18 09:07 36.089276 -115.156655 205 2148ft 24kts

Navigation Log

Ident Type
Flight plan parsing failed, navigation log unavailable